Time;durP1;ratioP1;P1;durP2;ratioP2;P2;SDS_P1;SDS_P2;PMS_P1;PMS_P2;Temp;Humidity;BMP_temperature;BMP_pressure;BME280_temperature;BME280_humidity;BME280_pressure;Samples;Min_cycle;Max_cycle;Signal;HPM_P1;HPM_P2
2023/05/21 00:00:34;;;;;;;;;14.50;14.50;;;;;;;;6310704;22;8802;-75
2023/05/21 00:03:00;;;;;;;;;14.25;14.25;;;;;;;;6312411;22;8831;-77
2023/05/21 00:05:25;;;;;;;;;9.25;9.25;;;;;;;;6312621;22;9706;-78
2023/05/21 00:07:52;;;;;;;;;18.50;17.25;;;;;;;;6312607;22;8785;-78
2023/05/21 00:10:17;;;;;;;;;19.50;16.25;;;;;;;;6312826;22;8744;-78
2023/05/21 00:12:42;;;;;;;;;19.75;15.75;;;;;;;;6312097;22;11508;-77
2023/05/21 00:15:08;;;;;;;;;15.75;15.75;;;;;;;;6312681;22;8898;-77
2023/05/21 00:17:35;;;;;;;;;19.75;19.75;;;;;;;;6307596;22;9907;-77
2023/05/21 00:20:01;;;;;;;;;17.50;16.50;;;;;;;;6312117;22;8775;-76
2023/05/21 00:22:26;;;;;;;;;17.75;16.50;;;;;;;;6310525;22;12522;-77
2023/05/21 00:24:51;;;;;;;;;19.75;17.25;;;;;;;;6313326;22;8866;-77
2023/05/21 00:27:16;;;;;;;;;18.00;17.00;;;;;;;;6312999;22;9551;-78
2023/05/21 00:29:42;;;;;;;;;16.00;15.25;;;;;;;;6310502;22;8764;-78
2023/05/21 00:32:08;;;;;;;;;22.00;22.00;;;;;;;;6312757;22;8735;-79
2023/05/21 00:34:33;;;;;;;;;18.50;18.00;;;;;;;;6312487;22;11402;-76
2023/05/21 00:36:58;;;;;;;;;17.25;15.50;;;;;;;;6312345;22;8775;-78
2023/05/21 00:39:23;;;;;;;;;20.75;19.00;;;;;;;;6311955;22;9516;-77
2023/05/21 00:41:48;;;;;;;;;15.50;15.00;;;;;;;;6312757;22;8748;-77
2023/05/21 00:44:15;;;;;;;;;18.00;18.00;;;;;;;;6313068;22;8786;-78
2023/05/21 00:46:40;;;;;;;;;19.00;17.00;;;;;;;;6312733;22;8890;-78
2023/05/21 00:49:06;;;;;;;;;15.75;15.75;;;;;;;;6307027;22;11501;-77
2023/05/21 00:51:31;;;;;;;;;19.00;19.00;;;;;;;;6312737;22;8841;-78
2023/05/21 00:53:56;;;;;;;;;18.25;15.00;;;;;;;;6313223;22;8760;-78
2023/05/21 00:56:22;;;;;;;;;18.00;17.50;;;;;;;;6313065;22;8764;-78
2023/05/21 00:58:48;;;;;;;;;16.50;15.25;;;;;;;;6312778;22;8732;-78
2023/05/21 01:01:14;;;;;;;;;21.50;18.75;;;;;;;;6313456;22;8744;-77
2023/05/21 01:03:40;;;;;;;;;17.75;17.00;;;;;;;;6312436;22;8806;-76
2023/05/21 01:06:06;;;;;;;;;15.75;12.50;;;;;;;;6312453;22;11402;-77
2023/05/21 01:08:33;;;;;;;;;21.75;19.75;;;;;;;;6312355;22;8729;-77
2023/05/21 01:10:59;;;;;;;;;18.75;18.25;;;;;;;;6312233;22;11408;-77
2023/05/21 01:13:25;;;;;;;;;20.75;20.75;;;;;;;;6312543;22;11418;-77
2023/05/21 01:15:50;;;;;;;;;18.75;18.75;;;;;;;;6312673;22;8764;-77
2023/05/21 01:18:16;;;;;;;;;23.75;22.00;;;;;;;;6306756;22;8753;-77
2023/05/21 01:20:46;;;;;;;;;19.00;17.25;;;;;;;;6312307;22;8775;-77
2023/05/21 01:23:12;;;;;;;;;22.50;20.50;;;;;;;;6312503;22;8847;-77
2023/05/21 01:25:41;;;;;;;;;24.75;24.25;;;;;;;;6312009;22;11418;-77
2023/05/21 01:28:06;;;;;;;;;25.50;19.00;;;;;;;;6312423;22;11385;-77
2023/05/21 01:30:31;;;;;;;;;22.75;21.75;;;;;;;;6311421;22;12253;-78
2023/05/21 01:33:01;;;;;;;;;24.75;24.25;;;;;;;;6312100;22;8882;-78
2023/05/21 01:35:30;;;;;;;;;21.75;19.25;;;;;;;;6311975;22;8764;-78
2023/05/21 01:38:02;;;;;;;;;23.00;20.75;;;;;;;;6312212;22;11421;-77
2023/05/21 01:40:44;;;;;;;;;25.75;22.25;;;;;;;;6312510;22;11418;-77
2023/05/21 01:43:10;;;;;;;;;24.75;23.50;;;;;;;;6312061;22;11334;-77
2023/05/21 01:45:37;;;;;;;;;24.25;22.50;;;;;;;;6284375;22;11468;-77
2023/05/21 01:48:04;;;;;;;;;25.00;25.00;;;;;;;;6307169;22;8860;-77
2023/05/21 01:50:31;;;;;;;;;22.00;22.00;;;;;;;;6311615;22;11331;-77
2023/05/21 01:52:57;;;;;;;;;23.00;23.00;;;;;;;;6312352;22;11412;-77
2023/05/21 01:55:23;;;;;;;;;23.75;22.00;;;;;;;;6310244;22;11447;-78
2023/05/21 01:57:49;;;;;;;;;25.50;22.00;;;;;;;;6312513;22;12170;-78
2023/05/21 02:00:15;;;;;;;;;26.25;23.50;;;;;;;;6312703;22;11318;-77
2023/05/21 02:02:40;;;;;;;;;25.75;23.75;;;;;;;;6313027;22;11406;-76
2023/05/21 02:05:07;;;;;;;;;21.25;21.00;;;;;;;;6312337;22;8785;-76
2023/05/21 02:07:32;;;;;;;;;27.50;26.75;;;;;;;;6312249;22;9506;-76
2023/05/21 02:09:57;;;;;;;;;24.00;23.50;;;;;;;;6312478;22;11396;-77
2023/05/21 02:12:23;;;;;;;;;25.00;23.75;;;;;;;;6311832;22;8778;-76
2023/05/21 02:14:49;;;;;;;;;23.00;21.75;;;;;;;;6284395;22;8843;-76
2023/05/21 02:17:14;;;;;;;;;23.00;21.75;;;;;;;;6312358;22;9951;-76
2023/05/21 02:19:40;;;;;;;;;28.00;27.50;;;;;;;;6310181;22;11449;-76
2023/05/21 02:22:05;;;;;;;;;24.75;24.00;;;;;;;;6312136;22;8761;-76
2023/05/21 02:24:30;;;;;;;;;25.50;25.50;;;;;;;;6313458;22;11369;-76
2023/05/21 02:26:57;;;;;;;;;29.50;25.00;;;;;;;;6313510;22;8808;-76
2023/05/21 02:29:22;;;;;;;;;23.25;22.75;;;;;;;;6313400;22;8703;-76
2023/05/21 02:31:47;;;;;;;;;22.75;22.00;;;;;;;;6313272;22;11463;-76
2023/05/21 02:34:12;;;;;;;;;26.25;26.25;;;;;;;;6313616;22;8749;-76
2023/05/21 02:36:40;;;;;;;;;30.00;29.50;;;;;;;;6313554;22;8780;-79
2023/05/21 02:39:05;;;;;;;;;30.25;26.50;;;;;;;;6313161;22;8764;-79
2023/05/21 02:41:30;;;;;;;;;21.50;21.50;;;;;;;;6313403;22;11412;-79
2023/05/21 02:43:55;;;;;;;;;28.25;23.50;;;;;;;;6285527;22;8878;-77
2023/05/21 02:46:20;;;;;;;;;25.75;20.75;;;;;;;;6313258;22;8799;-77
2023/05/21 02:48:46;;;;;;;;;31.50;26.75;;;;;;;;6312739;22;8875;-77
2023/05/21 02:51:11;;;;;;;;;31.25;27.00;;;;;;;;6313700;22;8740;-79
2023/05/21 02:53:36;;;;;;;;;23.25;22.00;;;;;;;;6313609;22;8886;-77
2023/05/21 02:56:01;;;;;;;;;27.25;26.25;;;;;;;;6313519;22;8756;-77
2023/05/21 02:58:26;;;;;;;;;27.25;27.25;;;;;;;;6285302;22;8787;-77
2023/05/21 03:00:52;;;;;;;;;29.25;28.00;;;;;;;;6312974;22;8767;-77
2023/05/21 03:03:17;;;;;;;;;26.00;23.75;;;;;;;;6285187;22;8767;-77
2023/05/21 03:05:44;;;;;;;;;30.75;29.50;;;;;;;;6313134;22;8775;-76
2023/05/21 03:08:09;;;;;;;;;26.25;25.75;;;;;;;;6313032;22;8759;-77
2023/05/21 03:10:34;;;;;;;;;23.75;23.75;;;;;;;;6313154;22;11416;-76
2023/05/21 03:13:03;;;;;;;;;30.25;28.25;;;;;;;;6313519;22;8759;-76
2023/05/21 03:15:32;;;;;;;;;33.00;27.25;;;;;;;;6313064;22;9731;-76
2023/05/21 03:17:57;;;;;;;;;21.75;21.25;;;;;;;;6312930;22;12236;-79
2023/05/21 03:20:22;;;;;;;;;28.00;26.75;;;;;;;;6313431;22;11384;-77
2023/05/21 03:22:48;;;;;;;;;23.75;23.25;;;;;;;;6313277;22;8759;-77
2023/05/21 03:25:14;;;;;;;;;29.00;26.75;;;;;;;;6285218;22;8776;-76
2023/05/21 03:27:39;;;;;;;;;24.75;22.75;;;;;;;;6313264;22;11397;-76
2023/05/21 03:30:04;;;;;;;;;31.25;26.25;;;;;;;;6313283;22;8810;-76
2023/05/21 03:32:32;;;;;;;;;31.75;28.25;;;;;;;;6313037;22;8764;-77
2023/05/21 03:34:57;;;;;;;;;27.25;26.50;;;;;;;;6312486;22;8762;-77
2023/05/21 03:37:22;;;;;;;;;24.50;24.25;;;;;;;;6313207;22;11402;-76
2023/05/21 03:39:48;;;;;;;;;28.00;25.25;;;;;;;;6312318;22;8776;-76
2023/05/21 03:42:13;;;;;;;;;27.50;27.25;;;;;;;;6312672;22;8768;-77
2023/05/21 03:44:38;;;;;;;;;28.25;26.75;;;;;;;;6285186;22;8795;-76
2023/05/21 03:47:03;;;;;;;;;35.00;28.75;;;;;;;;6312505;22;8783;-77
2023/05/21 03:49:29;;;;;;;;;33.50;31.75;;;;;;;;6312886;22;8764;-77
2023/05/21 03:51:54;;;;;;;;;30.75;28.00;;;;;;;;6312785;22;8790;-76
2023/05/21 03:54:19;;;;;;;;;28.25;27.50;;;;;;;;6312996;22;8749;-77
2023/05/21 03:56:44;;;;;;;;;30.25;29.75;;;;;;;;6284964;22;8803;-77
2023/05/21 03:59:09;;;;;;;;;29.25;27.00;;;;;;;;6284911;22;8802;-76
2023/05/21 04:01:35;;;;;;;;;33.25;29.75;;;;;;;;6312785;22;8783;-76
2023/05/21 04:04:00;;;;;;;;;33.75;29.50;;;;;;;;6312659;22;8957;-72
2023/05/21 04:06:25;;;;;;;;;34.50;32.25;;;;;;;;6312851;22;8787;-77
2023/05/21 04:08:51;;;;;;;;;34.25;30.25;;;;;;;;6284850;22;8779;-77
2023/05/21 04:11:16;;;;;;;;;33.00;30.00;;;;;;;;6313023;22;8873;-77
2023/05/21 04:13:41;;;;;;;;;33.75;32.50;;;;;;;;6313194;22;8790;-76
2023/05/21 04:16:08;;;;;;;;;31.00;31.00;;;;;;;;6312621;22;8869;-77
2023/05/21 04:18:33;;;;;;;;;24.25;23.50;;;;;;;;6313108;22;8744;-77
2023/05/21 04:20:59;;;;;;;;;26.75;23.75;;;;;;;;6312805;22;11528;-77
2023/05/21 04:23:24;;;;;;;;;29.75;29.00;;;;;;;;6313005;22;8724;-76
2023/05/21 04:25:51;;;;;;;;;32.75;30.50;;;;;;;;6312835;22;9698;-76
2023/05/21 04:28:19;;;;;;;;;35.75;31.50;;;;;;;;6313000;22;8709;-77
2023/05/21 04:30:45;;;;;;;;;34.25;30.75;;;;;;;;6312389;22;11538;-76
2023/05/21 04:33:10;;;;;;;;;31.75;29.25;;;;;;;;6284913;22;11467;-76
2023/05/21 04:35:35;;;;;;;;;34.00;28.25;;;;;;;;6313165;22;11481;-77
2023/05/21 04:38:00;;;;;;;;;34.00;32.75;;;;;;;;6312724;22;8748;-77
2023/05/21 04:40:26;;;;;;;;;28.75;28.75;;;;;;;;6285017;22;8875;-77
2023/05/21 04:42:51;;;;;;;;;31.00;27.25;;;;;;;;6312980;22;8764;-77
2023/05/21 04:45:16;;;;;;;;;25.75;25.25;;;;;;;;6312060;22;8852;-77
2023/05/21 04:47:42;;;;;;;;;37.25;33.00;;;;;;;;6312859;22;8878;-76
2023/05/21 04:50:07;;;;;;;;;34.25;29.75;;;;;;;;6313244;22;9524;-77
2023/05/21 04:52:33;;;;;;;;;33.75;32.75;;;;;;;;6313035;22;8841;-77
2023/05/21 04:54:58;;;;;;;;;32.00;29.00;;;;;;;;6312773;22;8754;-78
2023/05/21 04:57:23;;;;;;;;;28.50;27.25;;;;;;;;6312661;22;8813;-77
2023/05/21 04:59:49;;;;;;;;;30.00;25.75;;;;;;;;6312882;22;8744;-76
2023/05/21 05:02:14;;;;;;;;;27.00;26.50;;;;;;;;6313045;22;8852;-76
2023/05/21 05:04:39;;;;;;;;;26.50;25.75;;;;;;;;6313085;22;8760;-77
2023/05/21 05:07:05;;;;;;;;;29.00;28.50;;;;;;;;6312805;22;8788;-76
2023/05/21 05:09:30;;;;;;;;;28.50;28.50;;;;;;;;6313094;22;8760;-77
2023/05/21 05:11:55;;;;;;;;;43.00;34.50;;;;;;;;6311985;22;8833;-76
2023/05/21 05:14:20;;;;;;;;;26.25;25.25;;;;;;;;6312962;22;8752;-77
2023/05/21 05:16:47;;;;;;;;;31.50;29.50;;;;;;;;6312719;22;8772;-76
2023/05/21 05:19:12;;;;;;;;;33.50;29.50;;;;;;;;6312392;22;8744;-77
2023/05/21 05:21:37;;;;;;;;;33.25;29.00;;;;;;;;6312512;22;11549;-77
2023/05/21 05:24:02;;;;;;;;;28.25;27.75;;;;;;;;6312434;22;8768;-77
2023/05/21 05:26:27;;;;;;;;;31.50;30.00;;;;;;;;6312146;22;8796;-76
2023/05/21 05:28:53;;;;;;;;;34.25;28.25;;;;;;;;6313250;22;10079;-80
2023/05/21 05:31:18;;;;;;;;;29.75;28.50;;;;;;;;6312819;22;8756;-76
2023/05/21 05:33:43;;;;;;;;;29.25;29.00;;;;;;;;6312830;22;8782;-76
2023/05/21 05:36:08;;;;;;;;;36.75;30.75;;;;;;;;6310677;22;8791;-76
2023/05/21 05:38:34;;;;;;;;;33.75;31.00;;;;;;;;6312054;22;8772;-74
2023/05/21 05:40:59;;;;;;;;;29.75;29.00;;;;;;;;6313566;22;8733;-74
2023/05/21 05:43:25;;;;;;;;;33.50;28.00;;;;;;;;6312822;22;8772;-74
2023/05/21 05:45:50;;;;;;;;;28.75;27.50;;;;;;;;6312476;22;8894;-75
2023/05/21 05:48:15;;;;;;;;;31.25;28.50;;;;;;;;6313019;22;8769;-75
2023/05/21 05:50:40;;;;;;;;;31.50;30.00;;;;;;;;6310625;22;8764;-76
2023/05/21 05:53:06;;;;;;;;;28.00;26.50;;;;;;;;6312805;22;8756;-75
2023/05/21 05:55:31;;;;;;;;;35.00;32.00;;;;;;;;6312512;22;8874;-76
2023/05/21 05:57:56;;;;;;;;;30.25;29.75;;;;;;;;6312768;22;8850;-76
2023/05/21 06:00:21;;;;;;;;;32.00;28.75;;;;;;;;6312403;22;8768;-75
2023/05/21 06:02:47;;;;;;;;;29.00;29.00;;;;;;;;6312263;22;8763;-74
2023/05/21 06:05:12;;;;;;;;;38.00;33.00;;;;;;;;6312025;22;8806;-75
2023/05/21 06:07:39;;;;;;;;;32.50;30.75;;;;;;;;6312357;22;8764;-75
2023/05/21 06:10:05;;;;;;;;;36.00;30.75;;;;;;;;6311756;22;8767;-75
2023/05/21 06:12:30;;;;;;;;;32.50;31.75;;;;;;;;6312646;22;11456;-75
2023/05/21 06:14:55;;;;;;;;;24.50;21.25;;;;;;;;6312036;22;8873;-75
2023/05/21 06:17:20;;;;;;;;;35.25;33.25;;;;;;;;6312643;22;8775;-75
2023/05/21 06:19:45;;;;;;;;;33.25;30.25;;;;;;;;6312020;22;8748;-75
2023/05/21 06:22:11;;;;;;;;;35.25;31.75;;;;;;;;6312536;22;8930;-76
2023/05/21 06:24:36;;;;;;;;;36.75;34.50;;;;;;;;6312012;22;8736;-75
2023/05/21 06:27:02;;;;;;;;;29.25;28.25;;;;;;;;6312333;22;8804;-75
2023/05/21 06:29:27;;;;;;;;;36.75;32.50;;;;;;;;6312228;22;8767;-75
2023/05/21 06:31:53;;;;;;;;;35.25;32.00;;;;;;;;6312095;22;11395;-76
2023/05/21 06:34:18;;;;;;;;;40.50;31.50;;;;;;;;6311947;22;8764;-76
2023/05/21 06:36:43;;;;;;;;;27.00;26.00;;;;;;;;6312244;22;8760;-76
2023/05/21 06:39:09;;;;;;;;;31.00;30.75;;;;;;;;6311035;22;8890;-76
2023/05/21 06:41:34;;;;;;;;;25.50;25.25;;;;;;;;6311787;22;8752;-76
2023/05/21 06:43:59;;;;;;;;;28.50;26.25;;;;;;;;6312145;22;8748;-77
2023/05/21 06:46:24;;;;;;;;;22.75;21.25;;;;;;;;6311931;22;8776;-82
2023/05/21 06:48:49;;;;;;;;;24.25;24.25;;;;;;;;6312498;22;8808;-81
2023/05/21 06:51:15;;;;;;;;;33.75;27.75;;;;;;;;6310823;22;8791;-77
2023/05/21 06:53:40;;;;;;;;;36.00;30.25;;;;;;;;6311678;22;8752;-77
2023/05/21 06:56:05;;;;;;;;;32.25;30.50;;;;;;;;6311969;22;8788;-79
2023/05/21 06:58:30;;;;;;;;;28.50;26.25;;;;;;;;6311348;22;8764;-78
2023/05/21 07:00:56;;;;;;;;;27.75;27.75;;;;;;;;6311517;22;8855;-86
2023/05/21 07:03:21;;;;;;;;;30.50;28.75;;;;;;;;6312391;22;8741;-80
2023/05/21 07:05:47;;;;;;;;;24.50;23.75;;;;;;;;6311962;22;9489;-79
2023/05/21 07:08:12;;;;;;;;;34.00;30.75;;;;;;;;6311782;22;8883;-77
2023/05/21 07:10:37;;;;;;;;;25.50;24.50;;;;;;;;6313385;22;8836;-81
2023/05/21 07:13:02;;;;;;;;;37.75;30.25;;;;;;;;6314094;22;8767;-79
2023/05/21 07:15:27;;;;;;;;;27.00;25.00;;;;;;;;6313845;22;8791;-81
2023/05/21 07:17:52;;;;;;;;;29.00;25.75;;;;;;;;6313766;22;8803;-79
2023/05/21 07:20:18;;;;;;;;;31.50;28.25;;;;;;;;6313697;22;8780;-79
2023/05/21 07:22:43;;;;;;;;;32.50;29.25;;;;;;;;6312895;22;8752;-77
2023/05/21 07:25:08;;;;;;;;;30.50;28.00;;;;;;;;6313203;22;9444;-77
2023/05/21 07:27:33;;;;;;;;;24.00;22.50;;;;;;;;6312741;22;8899;-81
2023/05/21 07:29:58;;;;;;;;;22.75;22.75;;;;;;;;6314007;22;8791;-81
2023/05/21 07:32:25;;;;;;;;;29.00;27.75;;;;;;;;6314526;22;8824;-80
2023/05/21 07:34:50;;;;;;;;;25.50;24.75;;;;;;;;6312827;22;8740;-80
2023/05/21 07:37:16;;;;;;;;;28.25;27.75;;;;;;;;6313089;22;12171;-83
2023/05/21 07:39:41;;;;;;;;;30.75;30.50;;;;;;;;6312269;22;8784;-80
2023/05/21 07:42:06;;;;;;;;;33.25;29.50;;;;;;;;6313775;22;8804;-82
2023/05/21 07:44:31;;;;;;;;;31.50;30.50;;;;;;;;6313403;22;8864;-82
2023/05/21 07:46:56;;;;;;;;;26.00;22.50;;;;;;;;6313662;22;8914;-83
2023/05/21 07:49:22;;;;;;;;;25.75;24.00;;;;;;;;6314135;22;8740;-82
2023/05/21 07:51:47;;;;;;;;;30.50;27.50;;;;;;;;6313697;22;8851;-82
2023/05/21 07:54:12;;;;;;;;;22.00;20.75;;;;;;;;6314308;22;8756;-83
2023/05/21 07:56:37;;;;;;;;;30.50;27.50;;;;;;;;6313892;22;8775;-82
2023/05/21 07:59:03;;;;;;;;;27.75;26.75;;;;;;;;6313525;22;8764;-81
2023/05/21 08:01:28;;;;;;;;;19.25;19.25;;;;;;;;6313081;22;8755;-79
2023/05/21 08:03:53;;;;;;;;;15.00;12.50;;;;;;;;6311834;22;9572;-76
2023/05/21 08:06:19;;;;;;;;;21.75;21.00;;;;;;;;6312478;22;8803;-75
2023/05/21 08:08:44;;;;;;;;;25.25;21.75;;;;;;;;6312711;22;8782;-75
2023/05/21 08:11:10;;;;;;;;;25.00;23.50;;;;;;;;6285141;22;9030;-74
2023/05/21 08:13:35;;;;;;;;;26.50;24.25;;;;;;;;6312991;22;8821;-75
2023/05/21 08:16:00;;;;;;;;;21.50;20.25;;;;;;;;6312723;22;8791;-79
2023/05/21 08:18:26;;;;;;;;;24.25;24.00;;;;;;;;6312169;22;8760;-77
2023/05/21 08:20:51;;;;;;;;;22.25;21.25;;;;;;;;6312579;22;8776;-76
2023/05/21 08:23:16;;;;;;;;;20.25;19.75;;;;;;;;6312986;22;8826;-77
2023/05/21 08:25:41;;;;;;;;;24.25;20.25;;;;;;;;6312565;22;8780;-78
2023/05/21 08:28:06;;;;;;;;;22.50;19.50;;;;;;;;6312780;22;8752;-84
2023/05/21 08:30:32;;;;;;;;;15.00;15.00;;;;;;;;6313023;22;8825;-77
2023/05/21 08:32:57;;;;;;;;;13.75;13.50;;;;;;;;6312981;22;8783;-81
2023/05/21 08:35:22;;;;;;;;;21.25;18.25;;;;;;;;6312650;22;8890;-78
2023/05/21 08:37:48;;;;;;;;;17.25;16.25;;;;;;;;6284830;22;8825;-73
2023/05/21 08:40:13;;;;;;;;;22.00;19.25;;;;;;;;6312772;22;8764;-75
2023/05/21 08:42:42;;;;;;;;;15.25;14.00;;;;;;;;6312782;22;8728;-72
2023/05/21 08:45:09;;;;;;;;;18.00;18.00;;;;;;;;6312349;22;8712;-74
2023/05/21 08:47:35;;;;;;;;;14.75;14.00;;;;;;;;6312677;22;11462;-72
2023/05/21 08:50:07;;;;;;;;;17.25;16.50;;;;;;;;6312365;22;11254;-76
2023/05/21 08:52:33;;;;;;;;;18.50;16.75;;;;;;;;6312665;22;8813;-76
2023/05/21 08:54:58;;;;;;;;;16.75;15.00;;;;;;;;6311940;22;11545;-75
2023/05/21 08:57:24;;;;;;;;;16.75;15.00;;;;;;;;6283779;22;8756;-68
2023/05/21 08:59:49;;;;;;;;;14.75;14.75;;;;;;;;6311476;22;8760;-68
2023/05/21 09:02:17;;;;;;;;;19.50;18.50;;;;;;;;6312941;22;8760;-69
2023/05/21 09:04:47;;;;;;;;;17.25;16.75;;;;;;;;6312437;22;8712;-68
2023/05/21 09:07:12;;;;;;;;;13.25;13.00;;;;;;;;6312139;22;11416;-68
2023/05/21 09:09:44;;;;;;;;;16.00;14.50;;;;;;;;6312588;22;11396;-68
2023/05/21 09:12:09;;;;;;;;;14.75;14.75;;;;;;;;6312291;22;8858;-68
2023/05/21 09:14:35;;;;;;;;;15.50;15.50;;;;;;;;6311985;22;12194;-68
2023/05/21 09:17:01;;;;;;;;;15.00;15.00;;;;;;;;6311658;22;8860;-67
2023/05/21 09:19:27;;;;;;;;;13.00;11.00;;;;;;;;6284317;22;11530;-68
2023/05/21 09:21:53;;;;;;;;;12.25;12.25;;;;;;;;6312003;22;8720;-68
2023/05/21 09:24:20;;;;;;;;;14.50;14.50;;;;;;;;6312282;22;11438;-68
2023/05/21 09:26:45;;;;;;;;;13.50;13.50;;;;;;;;6312138;22;8879;-68
2023/05/21 09:29:12;;;;;;;;;5.00;5.00;;;;;;;;6311782;22;11406;-67
2023/05/21 09:31:41;;;;;;;;;16.75;14.50;;;;;;;;6311908;22;9477;-68
2023/05/21 09:34:06;;;;;;;;;19.25;18.25;;;;;;;;6311705;22;11463;-68
2023/05/21 09:36:33;;;;;;;;;15.00;14.00;;;;;;;;6312812;22;12238;-68
2023/05/21 09:38:59;;;;;;;;;18.25;16.75;;;;;;;;6311146;22;8752;-67
2023/05/21 09:41:34;;;;;;;;;16.00;16.00;;;;;;;;6312209;22;11385;-68
2023/05/21 09:44:00;;;;;;;;;17.25;17.00;;;;;;;;6312034;22;8744;-67
2023/05/21 09:46:26;;;;;;;;;19.25;17.50;;;;;;;;6311890;22;11445;-68
2023/05/21 09:48:51;;;;;;;;;16.75;15.25;;;;;;;;6311859;22;11393;-68
2023/05/21 09:51:17;;;;;;;;;17.00;16.50;;;;;;;;6311989;22;8780;-67
2023/05/21 09:53:42;;;;;;;;;19.75;19.75;;;;;;;;6311769;22;8725;-68
2023/05/21 09:56:08;;;;;;;;;16.40;16.40;;;;;;;;6312589;22;11434;-68
2023/05/21 09:58:33;;;;;;;;;21.50;20.50;;;;;;;;6311546;22;8753;-70
2023/05/21 10:00:58;;;;;;;;;20.75;20.00;;;;;;;;6312247;22;9777;-70
2023/05/21 10:03:26;;;;;;;;;20.00;19.00;;;;;;;;6312004;22;8784;-71
2023/05/21 10:05:52;;;;;;;;;21.25;19.75;;;;;;;;6284161;22;8760;-71
2023/05/21 10:08:17;;;;;;;;;24.25;24.25;;;;;;;;6311800;22;11370;-71
2023/05/21 10:10:43;;;;;;;;;23.75;21.00;;;;;;;;6311646;22;11394;-71
2023/05/21 10:13:10;;;;;;;;;15.25;15.25;;;;;;;;6308190;22;8737;-71
2023/05/21 10:15:41;;;;;;;;;25.50;21.50;;;;;;;;6312150;22;8724;-71
2023/05/21 10:18:08;;;;;;;;;22.75;22.00;;;;;;;;6312031;22;12190;-70
2023/05/21 10:20:34;;;;;;;;;24.00;20.75;;;;;;;;6311823;22;11355;-71
2023/05/21 10:23:00;;;;;;;;;20.50;20.50;;;;;;;;6311121;22;11385;-71
2023/05/21 10:25:26;;;;;;;;;25.25;25.25;;;;;;;;6311628;22;8863;-71
2023/05/21 10:27:54;;;;;;;;;25.50;25.50;;;;;;;;6311425;22;11521;-72
2023/05/21 10:30:20;;;;;;;;;27.00;23.25;;;;;;;;6311514;22;8721;-72
2023/05/21 10:32:46;;;;;;;;;19.00;19.00;;;;;;;;6311524;22;11448;-70
2023/05/21 10:35:13;;;;;;;;;24.75;23.25;;;;;;;;6311679;22;11393;-70
2023/05/21 10:37:40;;;;;;;;;16.75;16.50;;;;;;;;6311566;22;11466;-70
2023/05/21 10:40:05;;;;;;;;;16.75;16.75;;;;;;;;6308872;22;11470;-70
2023/05/21 10:42:30;;;;;;;;;26.50;23.00;;;;;;;;6310802;22;11414;-70
2023/05/21 10:45:08;;;;;;;;;21.00;18.75;;;;;;;;6312142;22;8748;-70
2023/05/21 10:47:52;;;;;;;;;25.75;24.75;;;;;;;;6284598;22;8760;-70
2023/05/21 10:50:19;;;;;;;;;23.25;23.25;;;;;;;;6312082;22;11402;-70
2023/05/21 10:53:12;;;;;;;;;26.00;23.25;;;;;;;;6311635;22;11378;-69
2023/05/21 10:55:45;;;;;;;;;27.25;23.75;;;;;;;;6312537;22;11404;-69
2023/05/21 10:58:11;;;;;;;;;29.00;26.50;;;;;;;;6312148;22;12140;-70
2023/05/21 11:00:36;;;;;;;;;21.75;21.25;;;;;;;;6311102;22;11432;-70
2023/05/21 11:03:02;;;;;;;;;24.00;23.75;;;;;;;;6311053;22;8768;-69
2023/05/21 11:05:41;;;;;;;;;61.25;48.50;;;;;;;;6311449;22;8768;-70
2023/05/21 11:08:25;;;;;;;;;35.75;32.50;;;;;;;;6311511;22;8747;-70
2023/05/21 11:10:51;;;;;;;;;31.25;31.00;;;;;;;;6311938;22;11509;-69
2023/05/21 11:13:18;;;;;;;;;23.50;21.25;;;;;;;;6312030;22;11512;-68
2023/05/21 11:15:56;;;;;;;;;15.25;15.25;;;;;;;;6312259;22;11517;-69
2023/05/21 11:18:21;;;;;;;;;24.50;23.50;;;;;;;;6312259;22;12127;-69
2023/05/21 11:20:50;;;;;;;;;33.00;30.50;;;;;;;;6312274;22;11439;-68
2023/05/21 11:23:15;;;;;;;;;26.25;24.00;;;;;;;;6312637;22;8756;-68
2023/05/21 11:25:40;;;;;;;;;19.25;17.00;;;;;;;;6311781;22;11483;-68
2023/05/21 11:28:08;;;;;;;;;25.00;23.50;;;;;;;;6311779;22;8813;-69
2023/05/21 11:30:33;;;;;;;;;19.50;19.50;;;;;;;;6312184;22;8724;-69
2023/05/21 11:33:11;;;;;;;;;27.00;21.75;;;;;;;;6311939;22;12164;-69
2023/05/21 11:35:42;;;;;;;;;21.00;20.00;;;;;;;;6311906;22;8729;-68
2023/05/21 11:38:07;;;;;;;;;12.50;12.50;;;;;;;;6312138;22;11469;-69
2023/05/21 11:40:34;;;;;;;;;18.50;17.25;;;;;;;;6312238;22;11471;-66
2023/05/21 11:42:59;;;;;;;;;18.25;18.25;;;;;;;;6312745;22;8724;-66
2023/05/21 11:45:29;;;;;;;;;17.50;15.50;;;;;;;;6311050;22;11100;-67
2023/05/21 11:47:54;;;;;;;;;17.25;14.00;;;;;;;;6312808;22;8733;-66
2023/05/21 11:50:20;;;;;;;;;17.50;16.75;;;;;;;;6312739;22;11183;-67
2023/05/21 11:52:45;;;;;;;;;15.50;15.00;;;;;;;;6312333;22;8836;-67
2023/05/21 11:55:11;;;;;;;;;21.75;18.50;;;;;;;;6312549;22;8736;-67
2023/05/21 11:57:36;;;;;;;;;17.50;17.50;;;;;;;;6312874;22;8798;-67
2023/05/21 12:00:09;;;;;;;;;19.50;19.50;;;;;;;;6312151;22;8775;-67
2023/05/21 12:02:34;;;;;;;;;17.50;16.50;;;;;;;;6312687;22;8752;-67
2023/05/21 12:05:00;;;;;;;;;19.00;18.25;;;;;;;;6310500;22;11176;-67
2023/05/21 12:07:27;;;;;;;;;20.50;18.25;;;;;;;;6312939;22;8776;-67
2023/05/21 12:09:52;;;;;;;;;16.50;16.50;;;;;;;;6312925;22;8732;-67
2023/05/21 12:12:20;;;;;;;;;18.50;18.50;;;;;;;;6284614;22;11068;-67
2023/05/21 12:14:46;;;;;;;;;16.75;16.75;;;;;;;;6312152;22;8721;-67
2023/05/21 12:17:12;;;;;;;;;15.00;14.75;;;;;;;;6312988;22;10876;-67
2023/05/21 12:19:37;;;;;;;;;14.25;13.75;;;;;;;;6312762;22;10780;-67
2023/05/21 12:22:03;;;;;;;;;14.75;14.75;;;;;;;;6312778;22;8760;-68
2023/05/21 12:24:29;;;;;;;;;16.00;16.00;;;;;;;;6312368;22;8867;-68
2023/05/21 12:26:58;;;;;;;;;20.75;20.25;;;;;;;;6312413;22;8902;-68
2023/05/21 12:29:23;;;;;;;;;20.50;18.75;;;;;;;;6312733;22;8712;-68
2023/05/21 12:31:49;;;;;;;;;16.50;15.25;;;;;;;;6312925;22;11083;-68
2023/05/21 12:34:17;;;;;;;;;15.75;15.25;;;;;;;;6312466;22;8756;-69
2023/05/21 12:36:47;;;;;;;;;16.00;16.00;;;;;;;;6312849;22;9902;-69
2023/05/21 12:39:12;;;;;;;;;19.00;18.00;;;;;;;;6311631;22;11775;-70
2023/05/21 12:41:37;;;;;;;;;15.25;14.75;;;;;;;;6312527;22;10850;-69
2023/05/21 12:44:04;;;;;;;;;19.25;16.50;;;;;;;;6312897;22;8752;-69
2023/05/21 12:46:29;;;;;;;;;17.50;17.00;;;;;;;;6312803;22;8839;-72
2023/05/21 12:48:54;;;;;;;;;19.00;19.00;;;;;;;;6312516;22;11123;-68
2023/05/21 12:51:20;;;;;;;;;16.25;16.25;;;;;;;;6312817;22;8760;-69
2023/05/21 12:53:45;;;;;;;;;16.00;13.50;;;;;;;;6312893;22;8748;-69
2023/05/21 12:56:11;;;;;;;;;16.00;15.00;;;;;;;;6312657;22;8814;-68
2023/05/21 12:58:37;;;;;;;;;16.25;15.25;;;;;;;;6312508;22;8760;-69
2023/05/21 13:01:06;;;;;;;;;15.50;14.75;;;;;;;;6312281;22;8763;-68
2023/05/21 13:03:31;;;;;;;;;16.75;15.25;;;;;;;;6312491;22;11049;-68
2023/05/21 13:06:00;;;;;;;;;19.25;17.50;;;;;;;;6311842;22;11411;-68
2023/05/21 13:08:25;;;;;;;;;13.75;13.75;;;;;;;;6312182;22;8736;-68
2023/05/21 13:10:51;;;;;;;;;18.50;18.50;;;;;;;;6311466;22;11195;-67
2023/05/21 13:13:16;;;;;;;;;15.00;15.00;;;;;;;;6312425;22;8846;-69
2023/05/21 13:15:41;;;;;;;;;22.00;21.00;;;;;;;;6283245;22;8798;-69
2023/05/21 13:18:06;;;;;;;;;19.75;18.00;;;;;;;;6310926;22;8905;-68
2023/05/21 13:20:31;;;;;;;;;17.00;16.00;;;;;;;;6307699;22;8870;-69
2023/05/21 13:22:57;;;;;;;;;21.75;20.50;;;;;;;;6310243;22;8772;-68
2023/05/21 13:25:23;;;;;;;;;23.75;23.00;;;;;;;;6310892;22;8751;-68
2023/05/21 13:27:49;;;;;;;;;18.50;17.50;;;;;;;;6312051;22;8736;-68
2023/05/21 13:30:14;;;;;;;;;20.00;19.00;;;;;;;;6312259;22;11819;-68
2023/05/21 13:32:41;;;;;;;;;19.00;18.50;;;;;;;;6311337;22;8799;-68
2023/05/21 13:35:06;;;;;;;;;15.75;14.50;;;;;;;;6311655;22;11375;-68
2023/05/21 13:37:32;;;;;;;;;9.75;8.00;;;;;;;;6312545;22;8802;-68
2023/05/21 13:39:57;;;;;;;;;17.00;17.00;;;;;;;;6311268;22;8760;-68
2023/05/21 13:42:23;;;;;;;;;17.00;17.00;;;;;;;;6312210;22;11503;-68
2023/05/21 13:44:48;;;;;;;;;23.50;20.50;;;;;;;;6312300;22;8760;-68
2023/05/21 13:47:14;;;;;;;;;16.50;16.50;;;;;;;;6309263;22;9485;-68
2023/05/21 13:49:39;;;;;;;;;20.25;20.25;;;;;;;;6310530;22;8764;-68
2023/05/21 13:52:04;;;;;;;;;18.75;16.50;;;;;;;;6283972;22;8989;-68
2023/05/21 13:54:30;;;;;;;;;20.75;18.50;;;;;;;;6311170;22;8756;-68
2023/05/21 13:56:55;;;;;;;;;14.25;13.50;;;;;;;;6311042;22;9642;-68
2023/05/21 13:59:20;;;;;;;;;17.50;14.00;;;;;;;;6311487;22;8764;-69
2023/05/21 14:01:46;;;;;;;;;21.75;20.00;;;;;;;;6310899;22;8736;-68
2023/05/21 14:04:12;;;;;;;;;14.50;14.50;;;;;;;;6310672;22;8733;-68
2023/05/21 14:06:37;;;;;;;;;15.00;13.00;;;;;;;;6311837;22;11294;-68
2023/05/21 14:09:03;;;;;;;;;18.75;18.75;;;;;;;;6311784;22;9282;-68
2023/05/21 14:11:30;;;;;;;;;17.75;14.50;;;;;;;;6312404;22;8732;-69
2023/05/21 14:13:55;;;;;;;;;21.00;21.00;;;;;;;;6311745;22;8732;-67
2023/05/21 14:16:23;;;;;;;;;22.75;22.75;;;;;;;;6311789;22;11507;-69
2023/05/21 14:18:48;;;;;;;;;12.00;12.00;;;;;;;;6314082;22;8728;-68